Airport Name : Corrientes

Other Name : Corrientes

ICAO : SARC

IATA : CNQ

FAA :

Latitude : -27.445503

Longitude : -58.761864

Country : Argentina

Local Date and Time : 28 Feb 2021 19:03

 

TAF (Terminal Aerodrome Forecast)

 

METAR (METeorological Aerodrome Report)

SARC 282200Z 14013KT CAVOK 32/17 Q1008

SARC 282100Z 14013KT 9999 FEW025 34/15 Q1008

SARC 282000Z 14013KT 9999 FEW025 35/15 Q1009

SARC 281900Z 14008KT 9999 FEW025 35/18 Q1009

To Charter a Jet Click here.